createdAt,value
2022-11-02T00:02:18.938Z,101316.47
2022-11-02T00:04:45.919Z,101307.72
2022-11-02T00:07:12.857Z,101309.38
2022-11-02T00:09:39.773Z,101311.09
2022-11-02T00:12:09.666Z,101312.84
2022-11-02T00:14:36.566Z,101308.53
2022-11-02T00:17:03.607Z,101305.97
2022-11-02T00:19:30.876Z,101305.22
2022-11-02T00:21:58.902Z,101301.75
2022-11-02T00:24:25.833Z,101306.16
2022-11-02T00:26:53.868Z,101304.34
2022-11-02T00:29:21.633Z,101296.47
2022-11-02T00:31:48.555Z,101299.13
2022-11-02T00:34:17.106Z,101292.16
2022-11-02T00:36:44.108Z,101286.13
2022-11-02T00:39:11.097Z,101293.31
2022-11-02T00:41:38.458Z,101290.78
2022-11-02T00:44:05.670Z,101298.88
2022-11-02T00:46:32.754Z,101290.25
2022-11-02T00:48:59.792Z,101292.31
2022-11-02T00:51:29.190Z,101291.78
2022-11-02T00:53:56.174Z,101286.81
2022-11-02T00:56:23.128Z,101292.44
2022-11-02T00:58:50.274Z,101295.28
2022-11-02T01:01:17.369Z,101291.13
2022-11-02T01:03:44.256Z,101293.97
2022-11-02T01:06:15.547Z,101301.13
2022-11-02T01:08:42.481Z,101300.41
2022-11-02T01:11:17.620Z,101306.66
2022-11-02T01:13:45.469Z,101310.22
2022-11-02T01:16:14.701Z,101306.66
2022-11-02T01:18:43.640Z,101303.00
2022-11-02T01:21:10.571Z,101301.06
2022-11-02T01:23:39.353Z,101312.41
2022-11-02T01:26:08.026Z,101315.84
2022-11-02T01:28:35.464Z,101310.41
2022-11-02T01:31:02.637Z,101309.44
2022-11-02T01:33:29.603Z,101322.53
2022-11-02T01:35:56.796Z,101323.34
2022-11-02T01:38:24.163Z,101315.50
2022-11-02T01:40:51.360Z,101320.94
2022-11-02T01:43:27.961Z,101320.25
2022-11-02T01:46:26.880Z,101323.97
2022-11-02T01:49:03.725Z,101325.78
2022-11-02T01:51:36.597Z,101330.28
2022-11-02T01:54:09.060Z,101335.72
2022-11-02T01:56:39.844Z,101332.41
2022-11-02T01:59:12.941Z,101334.38
2022-11-02T02:01:40.141Z,101338.97
2022-11-02T02:04:09.408Z,101342.53
2022-11-02T02:06:39.215Z,101352.19
2022-11-02T02:09:07.928Z,101349.56
2022-11-02T02:11:38.777Z,101354.78
2022-11-02T02:14:09.689Z,101366.19
2022-11-02T02:17:06.270Z,101353.88
2022-11-02T02:19:55.598Z,101352.97
2022-11-02T02:22:54.467Z,101364.44
2022-11-02T02:25:30.322Z,101359.94
2022-11-02T02:28:01.391Z,101354.41
2022-11-02T02:30:37.087Z,101348.91
2022-11-02T02:33:35.871Z,101355.69
2022-11-02T02:36:35.277Z,101356.47
2022-11-02T02:39:10.278Z,101345.72
2022-11-02T02:41:42.338Z,101351.78
2022-11-02T02:44:22.210Z,101356.03
2022-11-02T02:46:58.838Z,101347.19
2022-11-02T02:49:31.704Z,101354.34
2022-11-02T02:52:00.781Z,101355.28
2022-11-02T02:54:38.457Z,101363.28
2022-11-02T02:57:15.116Z,101371.16
2022-11-02T02:59:44.784Z,101362.44
2022-11-02T03:02:36.209Z,101359.03
2022-11-02T03:05:23.076Z,101371.66
2022-11-02T03:07:50.540Z,101368.38
2022-11-02T03:10:28.164Z,101365.97
2022-11-02T03:13:04.186Z,101361.72
2022-11-02T03:15:41.121Z,101366.31
2022-11-02T03:18:35.717Z,101372.78
2022-11-02T03:21:18.619Z,101379.97
2022-11-02T03:23:58.289Z,101367.78
2022-11-02T03:26:48.528Z,101372.34
2022-11-02T03:29:33.619Z,101367.06
2022-11-02T03:32:07.878Z,101377.72
2022-11-02T03:34:49.061Z,101375.22
2022-11-02T03:37:32.191Z,101383.19
2022-11-02T03:40:13.516Z,101383.22
2022-11-02T03:42:44.266Z,101395.59
2022-11-02T03:45:24.133Z,101393.91
2022-11-02T03:48:00.240Z,101387.78
2022-11-02T03:50:27.902Z,101396.56
2022-11-02T03:53:01.367Z,101404.50
2022-11-02T03:55:34.464Z,101395.66
2022-11-02T03:58:01.879Z,101399.97
2022-11-02T04:00:34.790Z,101400.09
2022-11-02T04:03:09.043Z,101409.69
2022-11-02T04:05:41.196Z,101405.28
2022-11-02T04:08:24.556Z,101409.72
2022-11-02T04:11:17.021Z,101412.41
2022-11-02T04:14:04.413Z,101414.16
2022-11-02T04:16:36.191Z,101418.59
2022-11-02T04:19:28.163Z,101417.75
2022-11-02T04:22:18.717Z,101420.34
2022-11-02T04:25:07.956Z,101428.34
2022-11-02T04:27:35.886Z,101441.63
2022-11-02T04:30:04.369Z,101437.22
2022-11-02T04:32:58.922Z,101448.69
2022-11-02T04:35:29.623Z,101445.16
2022-11-02T04:38:15.786Z,101449.59
2022-11-02T04:40:44.412Z,101454.78
2022-11-02T04:43:11.594Z,101453.97
2022-11-02T04:45:40.133Z,101463.72
2022-11-02T04:48:09.224Z,101467.25
2022-11-02T04:50:37.176Z,101468.16
2022-11-02T04:53:07.664Z,101470.81
2022-11-02T04:55:35.979Z,101472.59
2022-11-02T04:58:03.693Z,101472.63
2022-11-02T05:00:31.102Z,101478.78
2022-11-02T05:02:58.549Z,101477.84
2022-11-02T05:05:26.551Z,101480.31
2022-11-02T05:07:57.010Z,101478.50
2022-11-02T05:10:24.059Z,101481.09
2022-11-02T05:12:58.197Z,101497.03
2022-11-02T05:15:39.641Z,101489.19
2022-11-02T05:18:08.265Z,101495.50
2022-11-02T05:20:35.914Z,101502.56
2022-11-02T05:23:03.406Z,101490.25
2022-11-02T05:25:34.992Z,101498.28
2022-11-02T05:28:02.010Z,101512.50
2022-11-02T05:30:31.238Z,101515.22
2022-11-02T05:32:58.220Z,101524.03
2022-11-02T05:35:25.219Z,101536.28
2022-11-02T05:37:55.344Z,101541.41
2022-11-02T05:40:23.044Z,101540.38
2022-11-02T05:42:50.164Z,101527.06
2022-11-02T05:45:20.603Z,101540.03
2022-11-02T05:47:51.613Z,101540.72
2022-11-02T05:50:18.736Z,101555.63
2022-11-02T05:52:46.126Z,101552.13
2022-11-02T05:55:13.881Z,101551.88
2022-11-02T05:57:40.758Z,101560.53
2022-11-02T06:00:08.806Z,101560.41
2022-11-02T06:02:39.257Z,101572.53
2022-11-02T06:05:06.559Z,101567.03
2022-11-02T06:07:33.567Z,101573.84
2022-11-02T06:10:00.481Z,101571.06
2022-11-02T06:12:27.642Z,101572.03
2022-11-02T06:14:54.798Z,101574.66
2022-11-02T06:17:21.745Z,101579.19
2022-11-02T06:19:48.598Z,101574.88
2022-11-02T06:22:15.514Z,101588.22
2022-11-02T06:24:42.487Z,101596.22
2022-11-02T06:27:09.462Z,101615.69
2022-11-02T06:29:37.977Z,101614.97
2022-11-02T06:32:05.385Z,101624.78
2022-11-02T06:34:32.289Z,101626.56
2022-11-02T06:36:59.248Z,101638.16
2022-11-02T06:39:26.227Z,101642.69
2022-11-02T06:41:53.385Z,101643.91
2022-11-02T06:44:20.365Z,101657.47
2022-11-02T06:46:47.346Z,101660.25
2022-11-02T06:49:14.275Z,101665.69
2022-11-02T06:51:41.238Z,101684.19
2022-11-02T06:54:10.219Z,101674.63
2022-11-02T06:56:40.977Z,101686.19
2022-11-02T06:59:07.879Z,101683.53
2022-11-02T07:01:35.302Z,101687.88
2022-11-02T07:04:03.278Z,101703.69
2022-11-02T07:06:30.290Z,101714.25
2022-11-02T07:08:57.202Z,101713.41
2022-11-02T07:11:24.057Z,101729.25
2022-11-02T07:13:50.981Z,101725.81
2022-11-02T07:16:17.956Z,101728.50
2022-11-02T07:18:44.876Z,101732.03
2022-11-02T07:21:12.969Z,101734.66
2022-11-02T07:23:40.034Z,101749.63
2022-11-02T07:26:07.042Z,101748.69
2022-11-02T07:28:36.778Z,101764.53
2022-11-02T07:31:03.667Z,101766.25
2022-11-02T07:33:30.625Z,101768.88
2022-11-02T07:35:57.795Z,101775.88
2022-11-02T07:38:24.692Z,101785.47
2022-11-02T07:40:51.646Z,101786.22
2022-11-02T07:43:18.650Z,101788.72
2022-11-02T07:45:55.038Z,101798.34
2022-11-02T07:48:22.201Z,101795.66
2022-11-02T07:50:49.183Z,101806.22
2022-11-02T07:53:17.209Z,101800.97
2022-11-02T07:55:44.212Z,101800.94
2022-11-02T07:58:14.955Z,101806.19
2022-11-02T08:00:42.779Z,101808.75
2022-11-02T08:03:11.860Z,101817.53
2022-11-02T08:05:41.420Z,101825.41
2022-11-02T08:08:14.550Z,101817.38
2022-11-02T08:10:42.557Z,101824.38
2022-11-02T08:13:13.575Z,101832.25
2022-11-02T08:15:40.736Z,101832.13
2022-11-02T08:18:12.729Z,101833.84
2022-11-02T08:20:40.070Z,101834.69
2022-11-02T08:23:07.777Z,101839.88
2022-11-02T08:25:36.102Z,101830.09
2022-11-02T08:28:04.524Z,101844.16
2022-11-02T08:30:32.257Z,101843.06
2022-11-02T08:33:04.621Z,101837.69
2022-11-02T08:35:31.686Z,101846.53
2022-11-02T08:38:00.090Z,101841.19
2022-11-02T08:40:27.238Z,101843.69
2022-11-02T08:42:59.805Z,101853.31
2022-11-02T08:45:53.949Z,101851.50
2022-11-02T08:48:18.441Z,101856.63
2022-11-02T08:50:45.404Z,101860.06
2022-11-02T08:53:12.398Z,101859.06
2022-11-02T08:55:39.474Z,101857.25
2022-11-02T08:58:07.102Z,101883.56
2022-11-02T09:00:35.028Z,101871.16
2022-11-02T09:03:03.818Z,101875.50
2022-11-02T09:05:36.801Z,101882.63
2022-11-02T09:08:11.257Z,101882.47
2022-11-02T09:10:38.401Z,101879.72
2022-11-02T09:13:07.972Z,101868.03
2022-11-02T09:15:37.026Z,101889.06
2022-11-02T09:18:08.732Z,101882.06
2022-11-02T09:20:36.332Z,101893.78
2022-11-02T09:23:03.598Z,101884.00
2022-11-02T09:25:30.725Z,101889.97
2022-11-02T09:27:57.978Z,101894.22
2022-11-02T09:30:27.113Z,101892.44
2022-11-02T09:32:54.833Z,101895.88
2022-11-02T09:35:22.152Z,101898.38
2022-11-02T09:37:50.863Z,101900.00
2022-11-02T09:40:23.070Z,101907.81
2022-11-02T09:43:21.930Z,101908.66
2022-11-02T09:45:59.653Z,101912.03
2022-11-02T09:48:47.458Z,101918.03
2022-11-02T09:51:29.590Z,101911.66
2022-11-02T09:54:17.160Z,101923.94
2022-11-02T09:56:45.624Z,101917.63
2022-11-02T09:59:22.602Z,101915.59
2022-11-02T10:02:02.964Z,101924.13
2022-11-02T10:04:54.015Z,101920.31
2022-11-02T10:07:20.883Z,101942.13
2022-11-02T10:09:55.957Z,101934.28
2022-11-02T10:12:41.876Z,101938.13
2022-11-02T10:15:17.331Z,101939.66
2022-11-02T10:17:47.645Z,101932.22
2022-11-02T10:20:41.569Z,101941.06
2022-11-02T10:23:18.310Z,101939.31
2022-11-02T10:25:47.533Z,101948.19
2022-11-02T10:28:23.475Z,101948.44
2022-11-02T10:30:52.281Z,101950.66
2022-11-02T10:33:24.827Z,101960.91
2022-11-02T10:36:18.398Z,101960.19
2022-11-02T10:39:13.625Z,101959.53
2022-11-02T10:41:55.665Z,101962.94
2022-11-02T10:44:25.627Z,101972.53
2022-11-02T10:46:52.481Z,101967.28
2022-11-02T10:49:57.090Z,101972.84
2022-11-02T10:52:24.779Z,101977.91
2022-11-02T10:54:52.100Z,101965.16
2022-11-02T10:57:25.254Z,101965.41
2022-11-02T11:00:28.091Z,101967.94
2022-11-02T11:03:16.986Z,101972.19
2022-11-02T11:05:49.783Z,101968.72
2022-11-02T11:08:32.010Z,101976.38
2022-11-02T11:11:11.528Z,101979.84
2022-11-02T11:16:35.646Z,101983.06
2022-11-02T11:21:51.666Z,101981.53
2022-11-02T11:24:28.111Z,101981.63
2022-11-02T11:27:17.200Z,101979.88
2022-11-02T11:29:56.705Z,101980.66
2022-11-02T11:32:30.728Z,101984.09
2022-11-02T11:35:07.948Z,101981.88
2022-11-02T11:37:34.958Z,101973.44
2022-11-02T11:40:14.865Z,101972.22
2022-11-02T11:42:43.016Z,101979.09
2022-11-02T11:45:23.641Z,101978.88
2022-11-02T11:47:54.968Z,101964.56
2022-11-02T11:50:25.139Z,101976.00
2022-11-02T11:53:13.138Z,101960.72
2022-11-02T11:55:49.023Z,101953.53
2022-11-02T11:58:21.239Z,101946.28
2022-11-02T12:01:10.473Z,101945.22
2022-11-02T12:03:56.872Z,101946.78
2022-11-02T12:07:14.972Z,101944.81
2022-11-02T12:10:05.656Z,101946.56
2022-11-02T12:13:17.488Z,101934.91
2022-11-02T12:16:15.993Z,101940.97
2022-11-02T12:19:00.523Z,101931.03
2022-11-02T12:21:33.441Z,101938.75
2022-11-02T12:24:12.390Z,101941.22
2022-11-02T12:26:59.500Z,101940.97
2022-11-02T12:29:48.340Z,101950.53
2022-11-02T12:32:26.716Z,101943.72
2022-11-02T12:35:34.789Z,101945.22
2022-11-02T12:38:17.413Z,101947.94
2022-11-02T12:41:22.527Z,101954.19
2022-11-02T12:44:03.901Z,101930.53
2022-11-02T12:46:53.701Z,101931.94
2022-11-02T12:50:34.871Z,101916.22
2022-11-02T12:53:11.332Z,101918.78
2022-11-02T12:55:44.637Z,101910.84
2022-11-02T13:00:38.134Z,101901.91
2022-11-02T13:08:57.865Z,101912.56
2022-11-02T13:11:37.447Z,101919.91
2022-11-02T13:14:15.382Z,101916.31
2022-11-02T13:16:55.916Z,101909.25
2022-11-02T13:19:48.399Z,101910.88
2022-11-02T13:22:19.975Z,101914.16
2022-11-02T13:24:56.233Z,101905.13
2022-11-02T13:27:36.826Z,101896.22
2022-11-02T13:30:15.747Z,101897.03
2022-11-02T13:33:00.922Z,101893.25
2022-11-02T13:35:37.496Z,101902.06
2022-11-02T13:38:25.267Z,101897.84
2022-11-02T13:41:13.677Z,101891.63
2022-11-02T13:44:36.271Z,101889.09
2022-11-02T13:47:30.575Z,101881.91
2022-11-02T13:50:00.630Z,101875.72
2022-11-02T13:52:44.985Z,101876.84
2022-11-02T13:55:45.784Z,101874.41
2022-11-02T13:58:48.787Z,101880.16
2022-11-02T14:01:19.818Z,101878.69
2022-11-02T14:04:04.778Z,101869.41
2022-11-02T14:06:52.424Z,101873.91
2022-11-02T14:09:39.928Z,101873.06
2022-11-02T14:12:22.029Z,101877.56
2022-11-02T14:15:14.260Z,101872.84
2022-11-02T14:17:53.538Z,101864.66
2022-11-02T14:20:40.031Z,101870.50
2022-11-02T14:23:10.259Z,101862.19
2022-11-02T14:25:56.270Z,101855.97
2022-11-02T14:28:23.422Z,101855.81
2022-11-02T14:31:05.752Z,101857.66
2022-11-02T14:34:04.943Z,101869.44
2022-11-02T14:37:09.946Z,101860.31
2022-11-02T14:39:45.002Z,101854.63
2022-11-02T14:43:13.625Z,101858.97
2022-11-02T14:46:06.442Z,101850.72
2022-11-02T14:48:48.261Z,101840.28
2022-11-02T14:51:42.562Z,101851.91
2022-11-02T14:54:20.074Z,101842.69
2022-11-02T14:57:34.736Z,101850.22
2022-11-02T15:00:19.731Z,101855.19
2022-11-02T15:02:49.118Z,101855.59
2022-11-02T15:05:37.434Z,101845.28
2022-11-02T15:08:25.818Z,101845.69
2022-11-02T15:10:53.196Z,101840.81
2022-11-02T15:13:20.259Z,101838.38
2022-11-02T15:15:56.085Z,101838.50
2022-11-02T15:18:31.458Z,101837.75
2022-11-02T15:21:22.820Z,101835.38
2022-11-02T15:23:58.962Z,101826.94
2022-11-02T15:26:42.093Z,101831.63
2022-11-02T15:29:44.228Z,101832.88
2022-11-02T15:32:22.803Z,101824.38
2022-11-02T15:34:55.042Z,101830.94
2022-11-02T15:37:30.264Z,101829.44
2022-11-02T15:40:02.174Z,101833.25
2022-11-02T15:42:44.547Z,101832.72
2022-11-02T15:46:02.281Z,101821.50
2022-11-02T15:49:19.928Z,101818.28
2022-11-02T15:52:15.728Z,101815.09
2022-11-02T15:55:18.946Z,101811.00
2022-11-02T15:58:19.846Z,101809.50
2022-11-02T16:01:11.962Z,101811.47
2022-11-02T16:03:45.804Z,101802.97
2022-11-02T16:06:13.722Z,101804.03
2022-11-02T16:08:44.022Z,101804.22
2022-11-02T16:11:18.992Z,101803.53
2022-11-02T16:16:50.135Z,101803.91
2022-11-02T16:19:21.914Z,101808.50
2022-11-02T16:21:50.117Z,101804.25
2022-11-02T16:24:19.102Z,101806.19
2022-11-02T16:26:48.192Z,101791.31
2022-11-02T16:29:32.284Z,101794.09
2022-11-02T16:32:00.399Z,101798.59
2022-11-02T16:34:31.953Z,101795.25
2022-11-02T16:37:09.006Z,101795.31
2022-11-02T16:39:41.939Z,101793.66
2022-11-02T16:42:24.089Z,101797.31
2022-11-02T16:45:04.011Z,101797.31
2022-11-02T16:47:41.991Z,101799.13
2022-11-02T16:50:22.626Z,101790.41
2022-11-02T16:52:57.525Z,101793.97
2022-11-02T16:55:45.317Z,101794.91
2022-11-02T16:58:22.996Z,101795.00
2022-11-02T17:01:05.440Z,101788.91
2022-11-02T17:03:34.624Z,101787.19
2022-11-02T17:06:07.177Z,101796.91
2022-11-02T17:08:38.140Z,101790.78
2022-11-02T17:11:13.442Z,101795.25
2022-11-02T17:14:00.126Z,101786.50
2022-11-02T17:16:34.227Z,101785.69
2022-11-02T17:19:04.150Z,101783.94
2022-11-02T17:21:31.255Z,101785.78
2022-11-02T17:23:59.549Z,101782.28
2022-11-02T17:26:37.562Z,101780.56
2022-11-02T17:29:26.452Z,101778.84
2022-11-02T17:32:00.518Z,101788.63
2022-11-02T17:34:28.581Z,101784.25
2022-11-02T17:36:55.791Z,101786.91
2022-11-02T17:39:23.330Z,101787.81
2022-11-02T17:42:15.285Z,101784.31
2022-11-02T17:44:45.261Z,101788.75
2022-11-02T17:47:16.469Z,101794.91
2022-11-02T17:49:43.776Z,101790.53
2022-11-02T17:52:19.545Z,101777.38
2022-11-02T17:54:46.681Z,101780.88
2022-11-02T17:57:15.371Z,101778.25
2022-11-02T17:59:44.422Z,101776.50
2022-11-02T18:02:15.494Z,101773.84
2022-11-02T18:07:12.312Z,101779.97
2022-11-02T18:09:39.844Z,101770.31
2022-11-02T18:12:09.083Z,101767.69
2022-11-02T18:14:36.707Z,101771.22
2022-11-02T18:17:04.669Z,101767.75
2022-11-02T18:19:33.303Z,101773.03
2022-11-02T18:22:01.407Z,101765.13
2022-11-02T18:24:28.527Z,101758.09
2022-11-02T18:26:55.534Z,101763.41
2022-11-02T18:29:23.054Z,101773.13
2022-11-02T18:31:50.631Z,101759.97
2022-11-02T18:34:17.899Z,101759.16
2022-11-02T18:36:45.131Z,101753.88
2022-11-02T18:39:12.785Z,101756.56
2022-11-02T18:41:43.110Z,101757.44
2022-11-02T18:44:15.126Z,101753.03
2022-11-02T18:46:43.204Z,101746.84
2022-11-02T18:49:10.989Z,101748.56
2022-11-02T18:51:43.158Z,101741.47
2022-11-02T18:54:11.075Z,101737.06
2022-11-02T18:56:38.410Z,101731.78
2022-11-02T18:59:06.750Z,101729.16
2022-11-02T19:01:34.606Z,101721.25
2022-11-02T19:04:03.010Z,101726.44
2022-11-02T19:06:53.353Z,101724.66
2022-11-02T19:09:23.917Z,101715.84
2022-11-02T19:12:00.468Z,101712.28
2022-11-02T19:14:45.500Z,101701.72
2022-11-02T19:17:15.708Z,101695.59
2022-11-02T19:19:46.583Z,101697.34
2022-11-02T19:22:38.957Z,101699.06
2022-11-02T19:25:06.753Z,101699.13
2022-11-02T19:27:34.071Z,101693.88
2022-11-02T19:30:02.638Z,101684.22
2022-11-02T19:32:30.076Z,101684.28
2022-11-02T19:34:57.837Z,101675.53
2022-11-02T19:37:25.973Z,101672.94
2022-11-02T19:39:53.316Z,101666.81
2022-11-02T19:42:21.117Z,101664.22
2022-11-02T19:44:48.589Z,101656.34
2022-11-02T19:47:16.064Z,101648.50
2022-11-02T19:49:43.465Z,101639.72
2022-11-02T19:52:11.122Z,101645.00
2022-11-02T19:54:38.612Z,101633.66
2022-11-02T19:57:07.020Z,101634.53
2022-11-02T19:59:34.623Z,101638.06
2022-11-02T20:02:02.433Z,101624.78
2022-11-02T20:04:30.020Z,101622.16
2022-11-02T20:06:58.750Z,101628.28
2022-11-02T20:09:25.909Z,101620.38
2022-11-02T20:11:54.941Z,101615.09
2022-11-02T20:14:22.070Z,101617.72
2022-11-02T20:16:58.730Z,101616.88
2022-11-02T20:19:36.262Z,101612.50
2022-11-02T20:22:03.369Z,101618.66
2022-11-02T20:24:30.365Z,101615.16
2022-11-02T20:27:02.663Z,101605.53
2022-11-02T20:29:29.803Z,101608.16
2022-11-02T20:31:56.813Z,101607.31
2022-11-02T20:34:23.796Z,101603.88
2022-11-02T20:36:50.894Z,101606.50
2022-11-02T20:39:18.159Z,101608.31
2022-11-02T20:41:45.212Z,101608.34
2022-11-02T20:44:12.303Z,101595.19
2022-11-02T20:46:41.860Z,101600.50
2022-11-02T20:51:57.780Z,101586.53
2022-11-02T20:54:26.574Z,101576.84
2022-11-02T20:56:53.786Z,101583.00
2022-11-02T20:59:20.995Z,101580.34
2022-11-02T21:01:48.191Z,101578.56
2022-11-02T21:04:20.269Z,101575.88
2022-11-02T21:06:51.759Z,101584.66
2022-11-02T21:09:19.961Z,101580.22
2022-11-02T21:12:05.877Z,101573.13
2022-11-02T21:14:32.929Z,101574.00
2022-11-02T21:17:02.022Z,101576.59
2022-11-02T21:19:29.242Z,101569.59
2022-11-02T21:22:00.028Z,101571.34
2022-11-02T21:24:28.743Z,101573.03
2022-11-02T21:26:55.939Z,101561.59
2022-11-02T21:29:23.052Z,101569.50
2022-11-02T21:31:50.244Z,101566.84
2022-11-02T21:34:17.199Z,101560.66
2022-11-02T21:36:44.200Z,101554.47
2022-11-02T21:39:16.889Z,101548.31
2022-11-02T21:41:43.970Z,101546.53
2022-11-02T21:44:12.141Z,101549.16
2022-11-02T21:46:39.194Z,101546.50
2022-11-02T21:49:06.149Z,101545.59
2022-11-02T21:51:34.795Z,101537.66
2022-11-02T21:54:01.898Z,101548.22
2022-11-02T21:56:31.751Z,101541.22
2022-11-02T21:58:58.894Z,101533.34
2022-11-02T22:01:48.308Z,101535.97
2022-11-02T22:04:25.128Z,101534.22
2022-11-02T22:06:52.893Z,101529.03
2022-11-02T22:09:20.095Z,101533.44
2022-11-02T22:11:47.476Z,101527.31
2022-11-02T22:14:14.652Z,101519.44
2022-11-02T22:16:43.630Z,101523.84
2022-11-02T22:19:13.614Z,101528.25
2022-11-02T22:21:45.249Z,101522.16
2022-11-02T22:24:12.789Z,101518.66
2022-11-02T22:26:50.535Z,101512.50
2022-11-02T22:29:17.907Z,101512.56
2022-11-02T22:31:45.271Z,101509.94
2022-11-02T22:34:15.233Z,101513.41
2022-11-02T22:36:45.076Z,101505.50
2022-11-02T22:39:13.940Z,101499.28
2022-11-02T22:41:47.885Z,101493.19
2022-11-02T22:44:18.635Z,101482.75
2022-11-02T22:46:49.608Z,101478.38
2022-11-02T22:49:19.466Z,101468.72
2022-11-02T22:51:50.619Z,101470.47
2022-11-02T22:54:19.653Z,101465.25
2022-11-02T22:56:48.610Z,101460.88
2022-11-02T22:59:16.618Z,101452.13
2022-11-02T23:01:43.758Z,101452.16
2022-11-02T23:04:12.367Z,101457.38
2022-11-02T23:06:40.172Z,101453.84
2022-11-02T23:09:07.409Z,101458.19
2022-11-02T23:11:36.988Z,101448.44
2022-11-02T23:14:14.901Z,101456.28
2022-11-02T23:16:47.202Z,101449.16
2022-11-02T23:19:28.719Z,101435.03
2022-11-02T23:22:18.723Z,101420.06
2022-11-02T23:25:11.312Z,101422.69
2022-11-02T23:28:00.714Z,101429.72
2022-11-02T23:30:53.691Z,101429.72
2022-11-02T23:33:23.249Z,101432.38
2022-11-02T23:36:09.102Z,101420.97
2022-11-02T23:38:55.050Z,101423.66
2022-11-02T23:41:22.098Z,101418.44
2022-11-02T23:43:49.417Z,101414.91
2022-11-02T23:46:17.611Z,101420.25
2022-11-02T23:48:48.294Z,101422.00
2022-11-02T23:51:37.082Z,101415.91
2022-11-02T23:54:22.731Z,101418.53
2022-11-02T23:56:50.106Z,101417.66
2022-11-02T23:59:18.105Z,101421.19
